sensor_id;sensor_type;location;lat;lon;timestamp;pressure;altitude;pressure_sealevel;temperature;humidity
63006;BME280;53704;52.532;6.426;2022-07-23T00:00:52;101902.06;;;14.45;85.75
63006;BME280;53704;52.532;6.426;2022-07-23T00:03:17;101892.34;;;14.60;85.10
63006;BME280;53704;52.532;6.426;2022-07-23T00:05:42;101888.59;;;14.19;86.38
63006;BME280;53704;52.532;6.426;2022-07-23T00:08:08;101895.69;;;14.20;86.21
63006;BME280;53704;52.532;6.426;2022-07-23T00:10:33;101909.00;;;14.05;87.46
63006;BME280;53704;52.532;6.426;2022-07-23T00:12:59;101907.06;;;14.23;86.94
63006;BME280;53704;52.532;6.426;2022-07-23T00:15:24;101914.22;;;13.98;87.92
63006;BME280;53704;52.532;6.426;2022-07-23T00:17:50;101897.47;;;14.37;85.20
63006;BME280;53704;52.532;6.426;2022-07-23T00:20:15;101892.66;;;14.23;84.87
63006;BME280;53704;52.532;6.426;2022-07-23T00:22:48;101896.53;;;13.86;86.23
63006;BME280;53704;52.532;6.426;2022-07-23T00:25:14;101895.91;;;13.92;85.59
63006;BME280;53704;52.532;6.426;2022-07-23T00:27:39;101894.88;;;13.93;86.42
63006;BME280;53704;52.532;6.426;2022-07-23T00:30:05;101896.06;;;13.90;86.64
63006;BME280;53704;52.532;6.426;2022-07-23T00:32:31;101893.22;;;13.74;86.46
63006;BME280;53704;52.532;6.426;2022-07-23T00:34:57;101893.13;;;13.57;87.26
63006;BME280;53704;52.532;6.426;2022-07-23T00:37:22;101890.50;;;13.92;85.77
63006;BME280;53704;52.532;6.426;2022-07-23T00:39:47;101884.03;;;13.41;87.54
63006;BME280;53704;52.532;6.426;2022-07-23T00:42:13;101885.78;;;13.14;89.63
63006;BME280;53704;52.532;6.426;2022-07-23T00:44:38;101886.56;;;13.06;89.63
63006;BME280;53704;52.532;6.426;2022-07-23T00:47:04;101882.03;;;13.43;87.30
63006;BME280;53704;52.532;6.426;2022-07-23T00:49:31;101883.66;;;13.17;88.59
63006;BME280;53704;52.532;6.426;2022-07-23T00:51:57;101890.06;;;12.98;89.44
63006;BME280;53704;52.532;6.426;2022-07-23T00:54:25;101881.94;;;12.98;90.10
63006;BME280;53704;52.532;6.426;2022-07-23T00:56:50;101885.09;;;13.12;89.30
63006;BME280;53704;52.532;6.426;2022-07-23T00:59:16;101884.03;;;13.23;89.10
63006;BME280;53704;52.532;6.426;2022-07-23T01:01:42;101887.25;;;13.26;88.48
63006;BME280;53704;52.532;6.426;2022-07-23T01:04:09;101892.84;;;13.07;90.11
63006;BME280;53704;52.532;6.426;2022-07-23T01:06:37;101883.94;;;13.14;89.64
63006;BME280;53704;52.532;6.426;2022-07-23T01:09:04;101880.53;;;13.30;89.04
63006;BME280;53704;52.532;6.426;2022-07-23T01:11:32;101873.97;;;13.15;90.30
63006;BME280;53704;52.532;6.426;2022-07-23T01:13:58;101875.91;;;13.23;89.42
63006;BME280;53704;52.532;6.426;2022-07-23T01:16:23;101866.41;;;13.00;90.26
63006;BME280;53704;52.532;6.426;2022-07-23T01:18:49;101865.66;;;13.08;89.08
63006;BME280;53704;52.532;6.426;2022-07-23T01:21:17;101872.00;;;12.71;91.34
63006;BME280;53704;52.532;6.426;2022-07-23T01:23:43;101869.47;;;12.70;92.30
63006;BME280;53704;52.532;6.426;2022-07-23T01:26:09;101872.59;;;12.75;91.37
63006;BME280;53704;52.532;6.426;2022-07-23T01:28:34;101865.78;;;12.71;91.76
63006;BME280;53704;52.532;6.426;2022-07-23T01:30:59;101861.47;;;12.78;91.20
63006;BME280;53704;52.532;6.426;2022-07-23T01:33:25;101863.00;;;12.62;92.01
63006;BME280;53704;52.532;6.426;2022-07-23T01:35:50;101856.75;;;12.62;92.16
63006;BME280;53704;52.532;6.426;2022-07-23T01:38:16;101855.88;;;12.61;92.45
63006;BME280;53704;52.532;6.426;2022-07-23T01:40:41;101860.59;;;12.77;91.64
63006;BME280;53704;52.532;6.426;2022-07-23T01:43:07;101857.38;;;12.74;92.16
63006;BME280;53704;52.532;6.426;2022-07-23T01:45:32;101855.88;;;12.61;92.78
63006;BME280;53704;52.532;6.426;2022-07-23T01:47:57;101859.38;;;12.72;92.41
63006;BME280;53704;52.532;6.426;2022-07-23T01:50:23;101856.19;;;12.58;92.94
63006;BME280;53704;52.532;6.426;2022-07-23T01:52:48;101849.94;;;12.76;91.83
63006;BME280;53704;52.532;6.426;2022-07-23T01:55:14;101856.28;;;13.02;90.56
63006;BME280;53704;52.532;6.426;2022-07-23T01:57:39;101855.50;;;12.56;91.62
63006;BME280;53704;52.532;6.426;2022-07-23T02:00:05;101848.16;;;12.66;91.13
63006;BME280;53704;52.532;6.426;2022-07-23T02:02:31;101840.88;;;12.49;91.64
63006;BME280;53704;52.532;6.426;2022-07-23T02:04:57;101844.16;;;12.71;91.20
63006;BME280;53704;52.532;6.426;2022-07-23T02:07:22;101837.53;;;12.83;89.40
63006;BME280;53704;52.532;6.426;2022-07-23T02:09:47;101837.75;;;12.72;89.72
63006;BME280;53704;52.532;6.426;2022-07-23T02:12:13;101830.69;;;12.43;92.18
63006;BME280;53704;52.532;6.426;2022-07-23T02:14:38;101831.84;;;12.40;92.22
63006;BME280;53704;52.532;6.426;2022-07-23T02:17:04;101834.63;;;12.48;91.37
63006;BME280;53704;52.532;6.426;2022-07-23T02:19:29;101841.69;;;12.59;90.58
63006;BME280;53704;52.532;6.426;2022-07-23T02:21:55;101839.25;;;12.38;92.05
63006;BME280;53704;52.532;6.426;2022-07-23T02:24:21;101838.69;;;12.35;92.25
63006;BME280;53704;52.532;6.426;2022-07-23T02:26:46;101840.28;;;12.55;90.70
63006;BME280;53704;52.532;6.426;2022-07-23T02:29:12;101837.91;;;12.24;92.37
63006;BME280;53704;52.532;6.426;2022-07-23T02:31:38;101830.38;;;12.46;91.04
63006;BME280;53704;52.532;6.426;2022-07-23T02:34:03;101826.16;;;12.16;92.00
63006;BME280;53704;52.532;6.426;2022-07-23T02:36:29;101831.69;;;12.14;93.48
63006;BME280;53704;52.532;6.426;2022-07-23T02:38:55;101836.03;;;11.87;93.54
63006;BME280;53704;52.532;6.426;2022-07-23T02:41:20;101832.38;;;11.79;94.35
63006;BME280;53704;52.532;6.426;2022-07-23T02:43:46;101837.91;;;11.87;94.03
63006;BME280;53704;52.532;6.426;2022-07-23T02:46:11;101837.81;;;12.16;91.84
63006;BME280;53704;52.532;6.426;2022-07-23T02:48:37;101843.97;;;12.08;91.85
63006;BME280;53704;52.532;6.426;2022-07-23T02:51:02;101842.13;;;12.27;91.12
63006;BME280;53704;52.532;6.426;2022-07-23T02:53:28;101839.44;;;11.99;91.78
63006;BME280;53704;52.532;6.426;2022-07-23T02:55:53;101835.41;;;12.13;91.71
63006;BME280;53704;52.532;6.426;2022-07-23T02:58:19;101841.59;;;11.96;90.99
63006;BME280;53704;52.532;6.426;2022-07-23T03:00:44;101835.59;;;12.02;91.27
63006;BME280;53704;52.532;6.426;2022-07-23T03:03:10;101837.66;;;12.18;90.40
63006;BME280;53704;52.532;6.426;2022-07-23T03:05:35;101831.19;;;12.01;90.80
63006;BME280;53704;52.532;6.426;2022-07-23T03:08:01;101836.38;;;11.74;92.21
63006;BME280;53704;52.532;6.426;2022-07-23T03:10:26;101838.03;;;11.95;91.35
63006;BME280;53704;52.532;6.426;2022-07-23T03:12:52;101857.94;;;11.74;92.57
63006;BME280;53704;52.532;6.426;2022-07-23T03:15:17;101856.69;;;11.69;93.75
63006;BME280;53704;52.532;6.426;2022-07-23T03:17:43;101847.75;;;11.78;92.59
63006;BME280;53704;52.532;6.426;2022-07-23T03:20:09;101848.53;;;11.88;92.37
63006;BME280;53704;52.532;6.426;2022-07-23T03:22:34;101849.38;;;11.89;91.57
63006;BME280;53704;52.532;6.426;2022-07-23T03:25:00;101846.13;;;11.85;91.25
63006;BME280;53704;52.532;6.426;2022-07-23T03:27:27;101848.19;;;11.64;91.58
63006;BME280;53704;52.532;6.426;2022-07-23T03:29:54;101845.25;;;11.47;92.65
63006;BME280;53704;52.532;6.426;2022-07-23T03:32:21;101852.31;;;11.58;91.65
63006;BME280;53704;52.532;6.426;2022-07-23T03:34:46;101858.34;;;11.32;93.32
63006;BME280;53704;52.532;6.426;2022-07-23T03:37:12;101854.63;;;11.53;93.38
63006;BME280;53704;52.532;6.426;2022-07-23T03:39:37;101852.19;;;11.40;93.48
63006;BME280;53704;52.532;6.426;2022-07-23T03:42:03;101854.75;;;11.32;93.28
63006;BME280;53704;52.532;6.426;2022-07-23T03:44:28;101854.47;;;11.45;93.46
63006;BME280;53704;52.532;6.426;2022-07-23T03:46:54;101854.88;;;11.40;94.00
63006;BME280;53704;52.532;6.426;2022-07-23T03:49:19;101854.38;;;11.17;95.03
63006;BME280;53704;52.532;6.426;2022-07-23T03:51:45;101842.69;;;11.46;93.56
63006;BME280;53704;52.532;6.426;2022-07-23T03:54:10;101843.47;;;11.75;90.22
63006;BME280;53704;52.532;6.426;2022-07-23T03:56:36;101845.97;;;11.30;93.27
63006;BME280;53704;52.532;6.426;2022-07-23T03:59:02;101845.28;;;11.08;95.25
63006;BME280;53704;52.532;6.426;2022-07-23T04:01:27;101847.13;;;11.37;93.94
63006;BME280;53704;52.532;6.426;2022-07-23T04:03:52;101856.47;;;11.33;94.55
63006;BME280;53704;52.532;6.426;2022-07-23T04:06:18;101858.44;;;11.50;93.37
63006;BME280;53704;52.532;6.426;2022-07-23T04:08:44;101861.13;;;11.50;93.04
63006;BME280;53704;52.532;6.426;2022-07-23T04:11:09;101863.38;;;11.65;92.44
63006;BME280;53704;52.532;6.426;2022-07-23T04:13:35;101856.25;;;11.64;91.77
63006;BME280;53704;52.532;6.426;2022-07-23T04:16:00;101858.13;;;11.63;92.76
63006;BME280;53704;52.532;6.426;2022-07-23T04:18:26;101866.81;;;11.47;92.72
63006;BME280;53704;52.532;6.426;2022-07-23T04:20:51;101855.56;;;11.62;92.41
63006;BME280;53704;52.532;6.426;2022-07-23T04:23:17;101860.28;;;11.40;93.80
63006;BME280;53704;52.532;6.426;2022-07-23T04:25:42;101856.03;;;11.37;94.28
63006;BME280;53704;52.532;6.426;2022-07-23T04:28:08;101861.66;;;11.64;93.00
63006;BME280;53704;52.532;6.426;2022-07-23T04:30:34;101856.56;;;11.61;93.28
63006;BME280;53704;52.532;6.426;2022-07-23T04:32:59;101859.41;;;11.49;94.16
63006;BME280;53704;52.532;6.426;2022-07-23T04:35:24;101863.09;;;11.68;93.55
63006;BME280;53704;52.532;6.426;2022-07-23T04:37:50;101860.53;;;11.66;94.31
63006;BME280;53704;52.532;6.426;2022-07-23T04:40:15;101862.56;;;11.54;95.11
63006;BME280;53704;52.532;6.426;2022-07-23T04:42:41;101860.25;;;11.69;94.39
63006;BME280;53704;52.532;6.426;2022-07-23T04:45:07;101863.06;;;11.77;94.80
63006;BME280;53704;52.532;6.426;2022-07-23T04:47:32;101859.81;;;11.74;94.50
63006;BME280;53704;52.532;6.426;2022-07-23T04:49:57;101860.59;;;12.04;93.19
63006;BME280;53704;52.532;6.426;2022-07-23T04:52:23;101862.16;;;11.97;93.74
63006;BME280;53704;52.532;6.426;2022-07-23T04:54:49;101863.59;;;11.81;95.81
63006;BME280;53704;52.532;6.426;2022-07-23T04:57:14;101851.84;;;11.72;96.57
63006;BME280;53704;52.532;6.426;2022-07-23T04:59:40;101847.53;;;11.99;95.72
63006;BME280;53704;52.532;6.426;2022-07-23T05:02:05;101851.53;;;11.95;94.61
63006;BME280;53704;52.532;6.426;2022-07-23T05:04:31;101857.25;;;12.20;93.45
63006;BME280;53704;52.532;6.426;2022-07-23T05:06:57;101858.19;;;12.01;95.26
63006;BME280;53704;52.532;6.426;2022-07-23T05:09:22;101862.16;;;11.97;96.94
63006;BME280;53704;52.532;6.426;2022-07-23T05:11:48;101867.47;;;12.26;95.64
63006;BME280;53704;52.532;6.426;2022-07-23T05:14:13;101865.16;;;12.31;94.33
63006;BME280;53704;52.532;6.426;2022-07-23T05:16:39;101870.09;;;12.36;95.22
63006;BME280;53704;52.532;6.426;2022-07-23T05:19:04;101871.97;;;12.35;95.27
63006;BME280;53704;52.532;6.426;2022-07-23T05:21:30;101866.81;;;12.42;94.65
63006;BME280;53704;52.532;6.426;2022-07-23T05:23:55;101875.84;;;12.51;95.72
63006;BME280;53704;52.532;6.426;2022-07-23T05:26:21;101876.28;;;12.46;95.78
63006;BME280;53704;52.532;6.426;2022-07-23T05:28:46;101877.78;;;12.58;95.29
63006;BME280;53704;52.532;6.426;2022-07-23T05:31:12;101866.16;;;12.58;94.96
63006;BME280;53704;52.532;6.426;2022-07-23T05:33:37;101881.81;;;12.54;95.90
63006;BME280;53704;52.532;6.426;2022-07-23T05:36:03;101883.41;;;12.75;95.21
63006;BME280;53704;52.532;6.426;2022-07-23T05:38:29;101885.09;;;12.94;93.94
63006;BME280;53704;52.532;6.426;2022-07-23T05:40:55;101886.63;;;12.96;93.49
63006;BME280;53704;52.532;6.426;2022-07-23T05:43:20;101895.13;;;12.83;95.18
63006;BME280;53704;52.532;6.426;2022-07-23T05:45:46;101892.84;;;13.07;95.56
63006;BME280;53704;52.532;6.426;2022-07-23T05:48:11;101898.63;;;13.12;93.50
63006;BME280;53704;52.532;6.426;2022-07-23T05:50:37;101896.22;;;13.09;94.11
63006;BME280;53704;52.532;6.426;2022-07-23T05:53:02;101896.59;;;13.14;94.08
63006;BME280;53704;52.532;6.426;2022-07-23T05:55:27;101905.66;;;13.05;94.84
63006;BME280;53704;52.532;6.426;2022-07-23T05:57:58;101907.88;;;13.09;92.92
63006;BME280;53704;52.532;6.426;2022-07-23T06:00:24;101907.75;;;13.29;93.14
63006;BME280;53704;52.532;6.426;2022-07-23T06:02:50;101906.44;;;13.33;92.92
63006;BME280;53704;52.532;6.426;2022-07-23T06:05:15;101903.94;;;13.21;93.03
63006;BME280;53704;52.532;6.426;2022-07-23T06:07:41;101899.03;;;13.35;92.29
63006;BME280;53704;52.532;6.426;2022-07-23T06:10:07;101906.22;;;13.44;91.89
63006;BME280;53704;52.532;6.426;2022-07-23T06:12:33;101899.94;;;13.44;89.69
63006;BME280;53704;52.532;6.426;2022-07-23T06:14:58;101905.81;;;13.57;91.78
63006;BME280;53704;52.532;6.426;2022-07-23T06:17:24;101912.59;;;13.61;92.66
63006;BME280;53704;52.532;6.426;2022-07-23T06:19:50;101903.84;;;13.67;91.86
63006;BME280;53704;52.532;6.426;2022-07-23T06:22:15;101912.16;;;13.74;90.62
63006;BME280;53704;52.532;6.426;2022-07-23T06:24:40;101913.78;;;13.85;90.21
63006;BME280;53704;52.532;6.426;2022-07-23T06:27:06;101916.75;;;14.00;90.29
63006;BME280;53704;52.532;6.426;2022-07-23T06:29:31;101910.00;;;14.04;89.85
63006;BME280;53704;52.532;6.426;2022-07-23T06:31:57;101919.16;;;14.03;89.73
63006;BME280;53704;52.532;6.426;2022-07-23T06:34:22;101919.78;;;13.97;90.04
63006;BME280;53704;52.532;6.426;2022-07-23T06:36:47;101915.97;;;14.07;86.18
63006;BME280;53704;52.532;6.426;2022-07-23T06:39:13;101914.72;;;14.28;87.04
63006;BME280;53704;52.532;6.426;2022-07-23T06:41:38;101918.09;;;14.30;85.46
63006;BME280;53704;52.532;6.426;2022-07-23T06:44:04;101922.00;;;14.36;84.71
63006;BME280;53704;52.532;6.426;2022-07-23T06:46:30;101920.19;;;14.44;83.67
63006;BME280;53704;52.532;6.426;2022-07-23T06:48:55;101924.94;;;14.42;83.60
63006;BME280;53704;52.532;6.426;2022-07-23T06:51:20;101919.38;;;14.44;82.38
63006;BME280;53704;52.532;6.426;2022-07-23T06:53:46;101925.53;;;14.62;82.45
63006;BME280;53704;52.532;6.426;2022-07-23T06:56:11;101934.56;;;14.71;83.64
63006;BME280;53704;52.532;6.426;2022-07-23T06:58:37;101924.91;;;14.77;82.16
63006;BME280;53704;52.532;6.426;2022-07-23T07:01:02;101925.06;;;14.75;82.03
63006;BME280;53704;52.532;6.426;2022-07-23T07:03:28;101937.66;;;14.84;81.77
63006;BME280;53704;52.532;6.426;2022-07-23T07:05:53;101933.28;;;15.00;80.13
63006;BME280;53704;52.532;6.426;2022-07-23T07:08:19;101931.78;;;15.06;80.08
63006;BME280;53704;52.532;6.426;2022-07-23T07:10:44;101941.81;;;15.22;81.13
63006;BME280;53704;52.532;6.426;2022-07-23T07:13:09;101945.19;;;15.24;80.76
63006;BME280;53704;52.532;6.426;2022-07-23T07:15:35;101946.25;;;15.31;79.10
63006;BME280;53704;52.532;6.426;2022-07-23T07:18:00;101941.47;;;15.41;79.40
63006;BME280;53704;52.532;6.426;2022-07-23T07:20:26;101943.69;;;15.54;79.00
63006;BME280;53704;52.532;6.426;2022-07-23T07:22:51;101941.84;;;15.63;76.85
63006;BME280;53704;52.532;6.426;2022-07-23T07:25:17;101944.03;;;15.51;76.84
63006;BME280;53704;52.532;6.426;2022-07-23T07:27:43;101944.72;;;15.78;75.42
63006;BME280;53704;52.532;6.426;2022-07-23T07:30:09;101944.72;;;15.94;75.82
63006;BME280;53704;52.532;6.426;2022-07-23T07:32:35;101945.88;;;16.16;73.68
63006;BME280;53704;52.532;6.426;2022-07-23T07:35:03;101950.97;;;16.03;73.35
63006;BME280;53704;52.532;6.426;2022-07-23T07:37:28;101944.50;;;16.20;74.20
63006;BME280;53704;52.532;6.426;2022-07-23T07:39:54;101944.63;;;16.35;74.14
63006;BME280;53704;52.532;6.426;2022-07-23T07:42:20;101947.75;;;16.63;72.79
63006;BME280;53704;52.532;6.426;2022-07-23T07:44:45;101947.41;;;16.58;70.68
63006;BME280;53704;52.532;6.426;2022-07-23T07:47:11;101949.34;;;16.89;70.10
63006;BME280;53704;52.532;6.426;2022-07-23T07:49:36;101946.31;;;16.76;69.90
63006;BME280;53704;52.532;6.426;2022-07-23T07:52:02;101954.03;;;17.04;71.14
63006;BME280;53704;52.532;6.426;2022-07-23T07:54:28;101960.97;;;17.06;68.40
63006;BME280;53704;52.532;6.426;2022-07-23T07:56:53;101956.63;;;17.20;68.59
63006;BME280;53704;52.532;6.426;2022-07-23T07:59:18;101957.72;;;17.11;68.51
63006;BME280;53704;52.532;6.426;2022-07-23T08:01:44;101962.47;;;17.40;68.41
63006;BME280;53704;52.532;6.426;2022-07-23T08:04:09;101963.56;;;17.54;67.09
63006;BME280;53704;52.532;6.426;2022-07-23T08:06:35;101966.59;;;17.74;67.13
63006;BME280;53704;52.532;6.426;2022-07-23T08:09:00;101961.94;;;17.83;65.28
63006;BME280;53704;52.532;6.426;2022-07-23T08:11:26;101962.50;;;18.46;64.33
63006;BME280;53704;52.532;6.426;2022-07-23T08:13:51;101970.22;;;18.42;63.79
63006;BME280;53704;52.532;6.426;2022-07-23T08:16:16;101965.22;;;18.16;64.72
63006;BME280;53704;52.532;6.426;2022-07-23T08:18:42;101964.41;;;18.46;64.85
63006;BME280;53704;52.532;6.426;2022-07-23T08:21:07;101964.44;;;18.67;62.92
63006;BME280;53704;52.532;6.426;2022-07-23T08:23:33;101978.75;;;18.10;62.78
63006;BME280;53704;52.532;6.426;2022-07-23T08:25:59;101972.38;;;18.47;64.09
63006;BME280;53704;52.532;6.426;2022-07-23T08:28:26;101986.19;;;18.31;63.95
63006;BME280;53704;52.532;6.426;2022-07-23T08:30:51;101980.81;;;18.67;62.90
63006;BME280;53704;52.532;6.426;2022-07-23T08:33:18;101976.97;;;18.91;62.64
63006;BME280;53704;52.532;6.426;2022-07-23T08:35:45;101979.47;;;19.08;61.98
63006;BME280;53704;52.532;6.426;2022-07-23T08:38:13;101987.59;;;18.71;62.46
63006;BME280;53704;52.532;6.426;2022-07-23T08:40:42;101979.53;;;19.14;62.50
63006;BME280;53704;52.532;6.426;2022-07-23T08:43:10;101984.09;;;19.29;62.98
63006;BME280;53704;52.532;6.426;2022-07-23T08:45:37;101984.91;;;19.66;61.24
63006;BME280;53704;52.532;6.426;2022-07-23T08:48:05;101986.75;;;19.65;61.32
63006;BME280;53704;52.532;6.426;2022-07-23T08:50:32;101994.00;;;19.51;60.78
63006;BME280;53704;52.532;6.426;2022-07-23T08:53:00;101992.97;;;19.31;62.60
63006;BME280;53704;52.532;6.426;2022-07-23T08:55:26;102002.63;;;19.33;62.38
63006;BME280;53704;52.532;6.426;2022-07-23T08:57:52;101998.13;;;19.26;60.46
63006;BME280;53704;52.532;6.426;2022-07-23T09:00:19;101999.81;;;19.85;60.16
63006;BME280;53704;52.532;6.426;2022-07-23T09:02:45;101997.06;;;19.63;61.64
63006;BME280;53704;52.532;6.426;2022-07-23T09:05:12;101993.56;;;19.11;60.52
63006;BME280;53704;52.532;6.426;2022-07-23T09:10:30;101986.84;;;19.50;59.53
63006;BME280;53704;52.532;6.426;2022-07-23T09:12:59;101984.97;;;19.73;59.08
63006;BME280;53704;52.532;6.426;2022-07-23T09:15:25;101993.69;;;20.11;58.36
63006;BME280;53704;52.532;6.426;2022-07-23T09:17:50;102000.47;;;19.29;61.60
63006;BME280;53704;52.532;6.426;2022-07-23T09:20:16;101991.25;;;19.73;60.46
63006;BME280;53704;52.532;6.426;2022-07-23T09:22:46;101992.13;;;19.74;59.76
63006;BME280;53704;52.532;6.426;2022-07-23T09:25:14;101991.75;;;20.05;59.48
63006;BME280;53704;52.532;6.426;2022-07-23T09:27:59;101994.13;;;19.22;59.04
63006;BME280;53704;52.532;6.426;2022-07-23T09:30:30;101994.94;;;19.22;59.76
63006;BME280;53704;52.532;6.426;2022-07-23T09:33:13;101985.25;;;20.06;59.26
63006;BME280;53704;52.532;6.426;2022-07-23T09:35:52;101987.13;;;20.34;56.26
63006;BME280;53704;52.532;6.426;2022-07-23T09:38:20;101991.66;;;20.55;57.33
63006;BME280;53704;52.532;6.426;2022-07-23T09:40:46;101990.81;;;20.89;56.57
63006;BME280;53704;52.532;6.426;2022-07-23T09:43:26;101993.38;;;20.98;55.79
63006;BME280;53704;52.532;6.426;2022-07-23T09:46:21;101997.63;;;20.65;57.79
63006;BME280;53704;52.532;6.426;2022-07-23T09:48:48;101994.00;;;21.00;57.20
63006;BME280;53704;52.532;6.426;2022-07-23T09:51:14;101997.91;;;20.42;58.58
63006;BME280;53704;52.532;6.426;2022-07-23T09:53:58;101988.63;;;21.33;55.64
63006;BME280;53704;52.532;6.426;2022-07-23T09:56:23;101990.94;;;21.36;53.11
63006;BME280;53704;52.532;6.426;2022-07-23T09:58:50;101992.75;;;21.02;55.52
63006;BME280;53704;52.532;6.426;2022-07-23T10:01:29;101988.19;;;21.16;54.85
63006;BME280;53704;52.532;6.426;2022-07-23T10:03:55;101988.19;;;21.29;55.15
63006;BME280;53704;52.532;6.426;2022-07-23T10:06:21;101993.03;;;21.21;55.80
63006;BME280;53704;52.532;6.426;2022-07-23T10:08:47;102000.28;;;20.93;56.47
63006;BME280;53704;52.532;6.426;2022-07-23T10:11:15;101990.53;;;21.39;56.35
63006;BME280;53704;52.532;6.426;2022-07-23T10:13:42;101993.34;;;21.53;54.78
63006;BME280;53704;52.532;6.426;2022-07-23T10:16:13;101980.06;;;21.69;55.63
63006;BME280;53704;52.532;6.426;2022-07-23T10:18:39;101997.34;;;22.17;55.37
63006;BME280;53704;52.532;6.426;2022-07-23T10:21:07;101993.13;;;22.21;53.90
63006;BME280;53704;52.532;6.426;2022-07-23T10:23:40;101992.56;;;22.84;51.73
63006;BME280;53704;52.532;6.426;2022-07-23T10:26:35;101992.94;;;22.94;50.13
63006;BME280;53704;52.532;6.426;2022-07-23T10:31:51;101993.88;;;22.68;50.25
63006;BME280;53704;52.532;6.426;2022-07-23T10:34:31;101993.47;;;22.58;50.38
63006;BME280;53704;52.532;6.426;2022-07-23T10:38:11;101998.44;;;23.65;49.52
63006;BME280;53704;52.532;6.426;2022-07-23T10:40:15;101992.56;;;23.61;48.78
63006;BME280;53704;52.532;6.426;2022-07-23T10:42:43;101988.34;;;24.34;46.22
63006;BME280;53704;52.532;6.426;2022-07-23T10:45:40;101992.69;;;23.73;46.33
63006;BME280;53704;52.532;6.426;2022-07-23T10:50:39;102001.53;;;24.07;47.51
63006;BME280;53704;52.532;6.426;2022-07-23T10:57:56;102001.28;;;24.34;46.45
63006;BME280;53704;52.532;6.426;2022-07-23T11:00:23;102001.44;;;23.32;46.78
63006;BME280;53704;52.532;6.426;2022-07-23T11:02:51;101997.19;;;24.36;46.97
63006;BME280;53704;52.532;6.426;2022-07-23T11:05:20;101998.47;;;24.15;47.36
63006;BME280;53704;52.532;6.426;2022-07-23T11:26:48;101988.97;;;26.07;42.96
63006;BME280;53704;52.532;6.426;2022-07-23T11:32:05;101980.53;;;25.78;40.90
63006;BME280;53704;52.532;6.426;2022-07-23T11:34:39;101986.63;;;25.80;41.53
63006;BME280;53704;52.532;6.426;2022-07-23T11:37:34;101992.72;;;25.28;43.52
63006;BME280;53704;52.532;6.426;2022-07-23T11:40:03;101996.63;;;26.52;40.16
63006;BME280;53704;52.532;6.426;2022-07-23T11:42:30;101985.88;;;25.73;42.21
63006;BME280;53704;52.532;6.426;2022-07-23T11:44:55;101986.00;;;25.54;43.27
63006;BME280;53704;52.532;6.426;2022-07-23T11:47:24;101988.78;;;26.61;39.74
63006;BME280;53704;52.532;6.426;2022-07-23T11:49:58;101992.50;;;25.72;42.88
63006;BME280;53704;52.532;6.426;2022-07-23T11:52:24;101995.16;;;25.90;40.86
63006;BME280;53704;52.532;6.426;2022-07-23T11:57:18;101987.47;;;25.80;42.53
63006;BME280;53704;52.532;6.426;2022-07-23T11:59:47;101983.03;;;24.58;41.64
63006;BME280;53704;52.532;6.426;2022-07-23T12:02:14;101983.03;;;25.79;43.43
63006;BME280;53704;52.532;6.426;2022-07-23T12:04:42;101985.44;;;27.28;40.81
63006;BME280;53704;52.532;6.426;2022-07-23T12:07:27;101987.75;;;26.03;41.43
63006;BME280;53704;52.532;6.426;2022-07-23T12:09:54;101982.38;;;26.31;40.99
63006;BME280;53704;52.532;6.426;2022-07-23T12:12:19;101983.84;;;25.26;41.60
63006;BME280;53704;52.532;6.426;2022-07-23T12:14:50;101993.91;;;24.46;42.97
63006;BME280;53704;52.532;6.426;2022-07-23T12:17:16;101992.75;;;24.17;43.33
63006;BME280;53704;52.532;6.426;2022-07-23T12:19:41;101996.38;;;26.53;40.48
63006;BME280;53704;52.532;6.426;2022-07-23T12:22:07;101988.47;;;25.98;40.55
63006;BME280;53704;52.532;6.426;2022-07-23T12:24:55;101986.66;;;26.27;41.55
63006;BME280;53704;52.532;6.426;2022-07-23T12:27:22;101983.06;;;27.20;39.46
63006;BME280;53704;52.532;6.426;2022-07-23T12:29:48;101985.28;;;26.77;38.55
63006;BME280;53704;52.532;6.426;2022-07-23T12:32:27;101995.50;;;26.53;38.84
63006;BME280;53704;52.532;6.426;2022-07-23T12:35:07;101989.44;;;25.19;39.91
63006;BME280;53704;52.532;6.426;2022-07-23T12:37:37;101985.09;;;27.70;38.69
63006;BME280;53704;52.532;6.426;2022-07-23T12:40:19;101987.28;;;27.22;39.49
63006;BME280;53704;52.532;6.426;2022-07-23T12:42:51;101976.38;;;28.12;39.81
63006;BME280;53704;52.532;6.426;2022-07-23T12:45:17;101981.34;;;28.10;38.84
63006;BME280;53704;52.532;6.426;2022-07-23T12:50:35;101981.75;;;28.80;39.30
63006;BME280;53704;52.532;6.426;2022-07-23T12:53:14;101983.66;;;28.19;38.87
63006;BME280;53704;52.532;6.426;2022-07-23T12:55:41;101977.47;;;28.95;39.51
63006;BME280;53704;52.532;6.426;2022-07-23T12:58:13;101978.28;;;28.95;35.63
63006;BME280;53704;52.532;6.426;2022-07-23T13:00:56;101982.44;;;27.75;40.81
63006;BME280;53704;52.532;6.426;2022-07-23T13:05:47;101979.75;;;29.25;37.83
63006;BME280;53704;52.532;6.426;2022-07-23T13:08:13;101978.53;;;28.49;37.58
63006;BME280;53704;52.532;6.426;2022-07-23T13:10:38;101982.09;;;26.97;38.72
63006;BME280;53704;52.532;6.426;2022-07-23T13:13:10;101978.91;;;27.97;38.96
63006;BME280;53704;52.532;6.426;2022-07-23T13:15:36;101974.72;;;28.33;37.84
63006;BME280;53704;52.532;6.426;2022-07-23T13:18:01;101977.69;;;28.66;35.73
63006;BME280;53704;52.532;6.426;2022-07-23T13:20:27;101976.50;;;29.66;36.06
63006;BME280;53704;52.532;6.426;2022-07-23T13:22:53;101974.06;;;28.43;36.42
63006;BME280;53704;52.532;6.426;2022-07-23T13:25:18;101977.13;;;29.13;38.97
63006;BME280;53704;52.532;6.426;2022-07-23T13:27:43;101975.94;;;28.21;37.11
63006;BME280;53704;52.532;6.426;2022-07-23T13:30:10;101980.97;;;28.85;37.31
63006;BME280;53704;52.532;6.426;2022-07-23T13:32:36;101971.00;;;29.71;35.70